Time;durP1;ratioP1;P1;durP2;ratioP2;P2;SDS_P1;SDS_P2;PMS_P1;PMS_P2;Temp;Humidity;BMP_temperature;BMP_pressure;BME280_temperature;BME280_humidity;BME280_pressure;Samples;Min_cycle;Max_cycle;Signal;HPM_P1;HPM_P2
2022/04/06 00:00:11;;;;;;;9.83;7.50;;;;;;;6.05;75.57;99721.45;1491226;86;22144;-84
2022/04/06 00:02:40;;;;;;;10.13;8.27;;;;;;;6.01;75.69;99714.78;1485323;87;22042;-84
2022/04/06 00:05:09;;;;;;;9.63;7.90;;;;;;;5.96;75.88;99715.21;1484159;87;21368;-84
2022/04/06 00:07:38;;;;;;;10.70;7.77;;;;;;;5.87;76.08;99720.76;1488694;87;22082;-85
2022/04/06 00:10:07;;;;;;;10.27;8.13;;;;;;;5.87;76.08;99720.76;1483143;87;21346;-84
2022/04/06 00:12:37;;;;;;;11.13;7.90;;;;;;;5.82;76.03;99719.50;1455469;88;22763;-84
2022/04/06 00:15:07;;;;;;;12.93;9.33;;;;;;;5.80;76.12;99713.05;1463973;89;22089;-85
2022/04/06 00:17:35;;;;;;;10.48;7.28;;;;;;;5.80;76.26;99712.23;1469729;87;23058;-85
2022/04/06 00:20:05;;;;;;;9.67;7.30;;;;;;;5.77;75.99;99709.38;1484589;88;21448;-85
2022/04/06 00:22:32;;;;;;;9.80;7.57;;;;;;;5.71;76.01;99709.92;1480896;87;22026;-86
2022/04/06 00:24:59;;;;;;;8.60;7.67;;;;;;;5.67;77.19;99709.86;1481434;87;22026;-85
2022/04/06 00:27:26;;;;;;;12.93;9.17;;;;;;;5.66;76.84;99709.00;1486338;87;22017;-86
2022/04/06 00:29:53;;;;;;;10.53;8.00;;;;;;;5.65;77.32;99713.09;1481764;87;22038;-84
2022/04/06 00:32:20;;;;;;;14.37;7.60;;;;;;;5.67;76.99;99716.42;1475849;86;22109;-84
2022/04/06 00:37:33;;;;;;;10.97;8.10;;;;;;;5.61;77.78;99715.61;1482417;87;22076;-84
2022/04/06 00:40:00;;;;;;;10.27;8.10;;;;;;;5.58;77.40;99710.17;1483656;87;22031;-84
2022/04/06 00:42:27;;;;;;;12.30;7.97;;;;;;;5.56;77.46;99715.20;1495240;87;22085;-84
2022/04/06 00:44:54;;;;;;;11.23;8.17;;;;;;;5.55;77.93;99713.06;1485374;87;22104;-85
2022/04/06 00:47:21;;;;;;;8.90;7.70;;;;;;;5.53;77.89;99714.16;1481815;87;22058;-84
2022/04/06 00:49:48;;;;;;;9.20;7.50;;;;;;;5.51;78.07;99711.66;1481086;86;23512;-84
2022/04/06 00:52:15;;;;;;;10.87;8.33;;;;;;;5.50;78.38;99717.05;1489277;87;22084;-84
2022/04/06 00:54:42;;;;;;;10.33;7.90;;;;;;;5.45;79.67;99723.17;1485810;87;23081;-84
2022/04/06 00:57:11;;;;;;;8.63;7.63;;;;;;;5.42;79.46;99726.40;1482166;87;22107;-83
2022/04/06 00:59:38;;;;;;;15.27;8.47;;;;;;;5.42;79.41;99721.64;1492802;87;22113;-82
2022/04/06 01:02:05;;;;;;;9.27;7.60;;;;;;;5.41;79.83;99718.19;1476778;87;22031;-82
2022/04/06 01:04:32;;;;;;;10.33;8.33;;;;;;;5.42;79.60;99718.52;1479142;87;22152;-83
2022/04/06 01:06:59;;;;;;;9.07;7.57;;;;;;;5.42;80.30;99721.64;1478390;87;23094;-82
2022/04/06 01:09:29;;;;;;;10.27;9.10;;;;;;;5.39;81.14;99720.11;1477120;87;22129;-82
2022/04/06 01:11:57;;;;;;;9.20;7.17;;;;;;;5.39;80.91;99709.61;1492154;86;22270;-81
2022/04/06 01:14:24;;;;;;;8.17;7.27;;;;;;;5.39;81.23;99714.86;1480164;87;22044;-83
2022/04/06 01:17:02;;;;;;;9.83;7.47;;;;;;;5.39;81.33;99720.11;1497903;86;22163;-81
2022/04/06 01:19:33;;;;;;;10.73;8.17;;;;;;;5.38;81.17;99713.20;1501771;86;23005;-85
2022/04/06 01:22:02;;;;;;;9.90;7.45;;;;;;;5.37;81.99;99713.32;1506911;86;22103;-82
2022/04/06 01:24:30;;;;;;;12.03;8.40;;;;;;;5.35;81.58;99710.84;1494957;86;21380;-83
2022/04/06 01:27:01;;;;;;;13.10;7.53;;;;;;;5.34;81.94;99710.96;1498758;86;22070;-82
2022/04/06 01:29:29;;;;;;;9.07;7.57;;;;;;;5.32;81.83;99715.05;1500419;86;22324;-84
2022/04/06 01:31:58;;;;;;;8.73;7.00;;;;;;;5.35;81.12;99720.48;1499507;86;22029;-83
2022/04/06 01:34:25;;;;;;;8.63;7.10;;;;;;;5.34;81.14;99718.34;1500763;86;22612;-84
2022/04/06 01:36:52;;;;;;;9.60;7.27;;;;;;;5.32;81.51;99720.30;1497563;86;22148;-85
2022/04/06 01:39:19;;;;;;;10.33;7.93;;;;;;;5.30;82.74;99715.65;1497668;87;23099;-84
2022/04/06 01:41:45;;;;;;;12.00;9.03;;;;;;;5.31;82.33;99722.55;1496827;86;22243;-84
2022/04/06 01:44:12;;;;;;;12.60;8.93;;;;;;;5.33;81.32;99727.68;1495103;86;22067;-85
2022/04/06 01:46:39;;;;;;;12.77;7.90;;;;;;;5.33;81.47;99731.12;1496423;86;22107;-85
2022/04/06 01:54:47;;;;;;;13.37;8.53;;;;;;;5.35;80.79;99713.47;1499671;86;22544;-85
2022/04/06 01:57:15;;;;;;;15.17;8.27;;;;;;;5.27;82.09;99711.98;1498657;86;22116;-85
2022/04/06 01:59:44;;;;;;;11.23;8.53;;;;;;;5.27;82.09;99711.98;1502814;86;22086;-85
2022/04/06 02:02:13;;;;;;;9.50;7.63;;;;;;;5.24;82.57;99708.30;1491552;86;23149;-85
2022/04/06 02:04:41;;;;;;;21.03;9.50;;;;;;;5.24;82.57;99708.30;1497398;86;22037;-84
2022/04/06 02:07:13;;;;;;;12.17;8.50;;;;;;;5.21;82.37;99711.20;1502075;86;22044;-88
2022/04/06 02:09:41;;;;;;;13.23;9.00;;;;;;;5.12;82.69;99706.70;1493186;86;22224;-86
2022/04/06 02:12:11;;;;;;;12.03;9.17;;;;;;;5.16;83.38;99717.30;1498698;86;22167;-83
2022/04/06 02:14:40;;;;;;;13.93;9.30;;;;;;;5.12;82.83;99718.05;1502836;86;24206;-84
2022/04/06 02:17:10;;;;;;;11.97;8.03;;;;;;;5.10;83.97;99725.70;1508136;86;22092;-83
2022/04/06 02:19:39;;;;;;;9.73;7.50;;;;;;;5.06;84.19;99723.79;1504560;86;22137;-85
2022/04/06 02:22:08;;;;;;;10.40;7.73;;;;;;;5.04;83.96;99728.36;1490642;86;21875;-85
2022/04/06 02:24:35;;;;;;;9.77;7.90;;;;;;;5.01;85.26;99729.10;1499800;86;23092;-84
2022/04/06 02:27:07;;;;;;;10.87;7.97;;;;;;;5.00;84.93;99732.66;1484435;87;22022;-85
2022/04/06 02:29:36;;;;;;;12.00;8.80;;;;;;;4.97;85.10;99739.82;1487074;87;22102;-84
2022/04/06 02:32:05;;;;;;;11.53;8.40;;;;;;;4.96;85.85;99742.36;1500468;86;22158;-84
2022/04/06 02:34:32;;;;;;;11.43;8.13;;;;;;;4.93;84.50;99742.36;1469211;88;22068;-85
2022/04/06 02:37:00;;;;;;;10.70;7.73;;;;;;;4.93;85.54;99744.98;1487347;86;22092;-85
2022/04/06 02:39:27;;;;;;;10.63;7.93;;;;;;;4.91;85.31;99752.14;1497258;86;24016;-85
2022/04/06 02:41:54;;;;;;;9.50;7.40;;;;;;;4.90;84.54;99750.48;1498321;86;22110;-86
2022/04/06 02:44:21;;;;;;;13.57;8.23;;;;;;;4.88;86.17;99751.56;1507668;86;22087;-86
2022/04/06 02:46:49;;;;;;;11.03;8.73;;;;;;;4.84;86.71;99754.94;1510143;86;23045;-84
2022/04/06 02:49:17;;;;;;;10.90;7.03;;;;;;;4.82;86.30;99748.97;1498452;86;22150;-84
2022/04/06 02:51:45;;;;;;;12.67;9.27;;;;;;;4.82;86.30;99748.97;1498211;86;21999;-84
2022/04/06 02:54:12;;;;;;;9.93;7.80;;;;;;;4.83;86.30;99761.11;1514352;86;21867;-86
2022/04/06 02:56:39;;;;;;;11.23;8.50;;;;;;;4.77;87.17;99747.20;1503899;86;22808;-85
2022/04/06 02:59:06;;;;;;;11.07;8.53;;;;;;;4.79;87.19;99759.72;1501389;86;21844;-85
2022/04/06 03:01:33;;;;;;;11.07;8.40;;;;;;;4.79;87.58;99768.06;1486995;86;23932;-86
2022/04/06 03:04:00;;;;;;;10.07;7.80;;;;;;;4.80;86.41;99760.55;1485234;87;22011;-84
2022/04/06 03:06:27;;;;;;;10.40;7.73;;;;;;;4.79;87.16;99755.78;1485490;87;21890;-84
2022/04/06 03:08:55;;;;;;;15.27;9.87;;;;;;;4.80;87.30;99758.75;1484174;86;22955;-87
2022/04/06 03:11:22;;;;;;;12.40;10.03;;;;;;;4.80;87.30;99758.75;1501179;87;21853;-85
2022/04/06 03:13:51;;;;;;;11.83;9.67;;;;;;;4.79;87.52;99758.41;1484378;86;22067;-84
2022/04/06 03:16:18;;;;;;;11.77;9.13;;;;;;;4.79;87.52;99758.41;1479862;87;22157;-84
2022/04/06 03:18:46;;;;;;;13.23;9.50;;;;;;;4.77;87.42;99751.63;1441711;89;22118;-85
2022/04/06 03:21:13;;;;;;;12.90;10.43;;;;;;;4.77;87.98;99747.20;1460185;89;22988;-85
2022/04/06 03:23:40;;;;;;;12.40;10.47;;;;;;;4.80;87.90;99753.98;1481597;87;23056;-85
2022/04/06 03:26:08;;;;;;;12.70;11.30;;;;;;;4.78;87.86;99751.52;1477602;87;22248;-84
2022/04/06 03:28:38;;;;;;;14.83;9.70;;;;;;;4.80;87.98;99750.88;1485832;88;21798;-85
2022/04/06 03:31:05;;;;;;;12.70;9.10;;;;;;;4.85;89.03;99755.27;1469538;88;22069;-85
2022/04/06 03:33:33;;;;;;;12.57;10.17;;;;;;;4.85;89.03;99755.27;1474792;88;22133;-83
2022/04/06 03:36:00;;;;;;;13.33;10.20;;;;;;;4.89;87.79;99750.59;1490800;87;21843;-84
2022/04/06 03:38:27;;;;;;;12.60;10.00;;;;;;;4.90;88.30;99750.59;1476648;87;22998;-85
2022/04/06 03:40:54;;;;;;;17.30;9.97;;;;;;;4.90;88.13;99745.24;1477717;88;22054;-85
2022/04/06 03:43:22;;;;;;;11.60;9.73;;;;;;;4.88;89.16;99752.39;1475126;87;22055;-86
2022/04/06 03:45:49;;;;;;;12.13;9.93;;;;;;;4.88;88.61;99749.77;1485908;88;21956;-81
2022/04/06 03:48:16;;;;;;;11.37;8.77;;;;;;;4.88;88.61;99749.77;1486335;87;21961;-83
2022/04/06 03:50:44;;;;;;;13.30;9.33;;;;;;;4.94;88.19;99755.81;1479548;88;22908;-82
2022/04/06 03:53:11;;;;;;;12.57;8.90;;;;;;;5.00;89.19;99760.20;1471981;88;21969;-83
2022/04/06 03:55:38;;;;;;;11.57;8.67;;;;;;;4.97;88.89;99743.75;1486448;88;22067;-85
2022/04/06 03:58:06;;;;;;;12.77;9.87;;;;;;;4.97;88.89;99743.75;1475915;88;22760;-84
2022/04/06 04:00:34;;;;;;;12.90;10.43;;;;;;;5.05;89.07;99754.09;1481512;87;21888;-84
2022/04/06 04:03:01;;;;;;;10.60;8.33;;;;;;;5.09;88.74;99760.28;1479502;88;23000;-84
2022/04/06 04:05:28;;;;;;;12.17;9.20;;;;;;;5.13;88.10;99752.98;1479372;88;22432;-83
2022/04/06 04:07:55;;;;;;;12.27;10.37;;;;;;;5.13;88.10;99752.98;1480328;88;22090;-83
2022/04/06 04:10:22;;;;;;;13.43;9.33;;;;;;;5.13;88.20;99763.47;1479589;88;22024;-84
2022/04/06 04:12:49;;;;;;;13.27;9.90;;;;;;;5.13;88.26;99764.78;1469579;86;22156;-84
2022/04/06 04:15:17;;;;;;;12.67;9.33;;;;;;;5.14;87.85;99767.75;1478228;87;23192;-84
2022/04/06 04:17:44;;;;;;;11.60;9.23;;;;;;;5.15;88.49;99772.02;1471039;87;22170;-84
2022/04/06 04:20:11;;;;;;;13.03;10.10;;;;;;;5.14;88.32;99771.68;1480396;87;22065;-85
2022/04/06 04:22:38;;;;;;;14.40;11.37;;;;;;;5.15;87.97;99766.77;1484386;87;22196;-85
2022/04/06 04:25:06;;;;;;;12.77;10.30;;;;;;;5.17;87.66;99768.80;1482164;87;22173;-85
2022/04/06 04:27:33;;;;;;;11.73;10.10;;;;;;;5.18;87.29;99770.48;1474490;87;22891;-85
2022/04/06 04:30:00;;;;;;;16.53;11.77;;;;;;;5.19;87.79;99772.95;1480042;87;22066;-83
2022/04/06 04:32:27;;;;;;;16.13;10.70;;;;;;;5.20;87.77;99769.85;1494262;87;22092;-84
2022/04/06 04:34:54;;;;;;;19.37;10.93;;;;;;;5.21;87.72;99775.47;1483146;87;22142;-85
2022/04/06 04:37:21;;;;;;;16.97;11.23;;;;;;;5.21;88.08;99776.78;1487354;87;22100;-84
2022/04/06 04:39:48;;;;;;;12.63;10.30;;;;;;;5.23;88.12;99784.02;1490198;87;22122;-84
2022/04/06 04:42:15;;;;;;;15.00;10.70;;;;;;;5.25;88.70;99793.91;1475294;87;22122;-84
2022/04/06 04:44:41;;;;;;;13.40;9.73;;;;;;;5.31;88.18;99790.77;1433066;88;23139;-84
2022/04/06 04:47:08;;;;;;;12.83;9.13;;;;;;;5.38;88.08;99796.32;1460837;88;22077;-84
2022/04/06 04:49:35;;;;;;;13.07;10.03;;;;;;;5.42;88.01;99801.20;1471833;88;23002;-85
2022/04/06 04:52:02;;;;;;;13.83;11.07;;;;;;;5.47;87.87;99797.34;1469178;87;21973;-84
2022/04/06 04:54:29;;;;;;;12.77;9.87;;;;;;;5.47;87.87;99797.34;1479233;87;22187;-86
2022/04/06 04:56:56;;;;;;;16.73;11.80;;;;;;;5.53;88.12;99813.41;1490101;87;22539;-84
2022/04/06 04:59:25;;;;;;;17.23;11.37;;;;;;;5.61;87.62;99824.56;1483065;87;22054;-85
2022/04/06 05:01:52;;;;;;;16.53;11.80;;;;;;;5.69;87.32;99826.05;1475293;87;22081;-85
2022/04/06 05:04:19;;;;;;;15.30;10.80;;;;;;;5.75;87.33;99816.33;1441529;89;22098;-85
2022/04/06 05:06:46;;;;;;;20.63;12.63;;;;;;;6.01;87.16;99823.34;1459842;89;23110;-84
2022/04/06 05:09:13;;;;;;;13.63;10.00;;;;;;;6.01;87.16;99823.34;1482040;87;21604;-85
2022/04/06 05:11:41;;;;;;;15.50;11.03;;;;;;;6.11;87.21;99824.67;1475335;87;21361;-84
2022/04/06 05:14:08;;;;;;;14.87;11.40;;;;;;;6.23;87.05;99827.54;1487441;87;21450;-85
2022/04/06 05:16:35;;;;;;;14.37;10.93;;;;;;;6.26;86.69;99805.42;1488549;88;22365;-81
2022/04/06 05:19:02;;;;;;;14.00;10.57;;;;;;;6.43;86.50;99817.08;1487735;87;21333;-80
2022/04/06 05:21:29;;;;;;;12.03;9.80;;;;;;;6.52;86.09;99825.45;1469975;87;23811;-80
2022/04/06 05:23:57;;;;;;;14.90;11.07;;;;;;;6.61;85.84;99830.38;1473761;87;21407;-81
2022/04/06 05:26:24;;;;;;;12.57;9.90;;;;;;;6.68;85.61;99820.98;1491953;87;22352;-80
2022/04/06 05:28:51;;;;;;;14.00;10.50;;;;;;;6.77;85.22;99834.63;1476767;87;21469;-84
2022/04/06 05:31:18;;;;;;;12.73;10.30;;;;;;;6.84;84.99;99842.78;1485633;87;22315;-83
2022/04/06 05:33:47;;;;;;;11.57;9.03;;;;;;;6.92;84.51;99846.88;1482502;88;21974;-85
2022/04/06 05:36:16;;;;;;;11.83;9.27;;;;;;;6.97;84.47;99847.30;1481769;87;21392;-84
2022/04/06 05:38:43;;;;;;;14.63;9.83;;;;;;;7.06;84.14;99847.78;1483204;87;22307;-84
2022/04/06 05:41:10;;;;;;;14.47;9.43;;;;;;;7.13;84.05;99846.72;1485436;86;21369;-84
2022/04/06 05:43:37;;;;;;;17.53;9.70;;;;;;;7.20;83.68;99855.25;1484990;86;21413;-87
2022/04/06 05:46:04;;;;;;;12.57;8.30;;;;;;;7.26;83.16;99855.17;1484046;88;21523;-84
2022/04/06 05:48:31;;;;;;;9.83;7.87;;;;;;;7.34;82.82;99857.12;1482456;88;22242;-84
2022/04/06 05:50:58;;;;;;;10.33;8.97;;;;;;;7.37;82.56;99857.66;1479807;87;21957;-86
2022/04/06 05:53:25;;;;;;;9.67;7.17;;;;;;;7.39;82.14;99841.70;1478728;88;21487;-84
2022/04/06 05:55:52;;;;;;;7.63;6.30;;;;;;;7.49;82.02;99853.06;1480583;86;21413;-87
2022/04/06 05:58:18;;;;;;;7.90;6.27;;;;;;;7.54;81.78;99856.57;1479914;88;22293;-85
2022/04/06 06:00:45;;;;;;;9.87;7.77;;;;;;;7.62;81.49;99857.55;1482377;86;21670;-85
2022/04/06 06:03:12;;;;;;;11.17;7.43;;;;;;;7.76;81.33;99860.69;1476583;88;22264;-85
2022/04/06 06:05:39;;;;;;;8.93;7.20;;;;;;;7.89;80.86;99864.67;1482995;86;22338;-85
2022/04/06 06:08:07;;;;;;;10.57;8.37;;;;;;;8.05;80.40;99865.84;1481160;87;21428;-85
2022/04/06 06:10:34;;;;;;;10.13;7.53;;;;;;;8.23;79.49;99867.22;1481981;87;21399;-84
2022/04/06 06:13:01;;;;;;;8.13;6.63;;;;;;;8.45;79.17;99872.63;1486740;86;22262;-84
2022/04/06 06:15:28;;;;;;;8.40;6.80;;;;;;;8.66;78.11;99876.31;1495608;86;22275;-84
2022/04/06 06:17:55;;;;;;;11.17;7.13;;;;;;;8.79;77.06;99872.84;1498145;86;21389;-87
2022/04/06 06:20:22;;;;;;;11.30;6.57;;;;;;;8.95;76.85;99880.10;1500904;86;21367;-86
2022/04/06 06:22:49;;;;;;;8.90;7.07;;;;;;;8.99;75.00;99880.95;1497136;86;21418;-85
2022/04/06 06:25:16;;;;;;;10.97;7.03;;;;;;;9.12;75.38;99871.81;1504252;86;21588;-85
2022/04/06 06:27:44;;;;;;;8.30;7.23;;;;;;;9.19;74.93;99874.20;1502190;86;21301;-85
2022/04/06 06:30:13;;;;;;;13.00;8.00;;;;;;;9.23;74.43;99874.22;1501909;86;21401;-85
2022/04/06 06:32:41;;;;;;;9.57;6.20;;;;;;;9.29;74.29;99875.42;1488326;86;22246;-85
2022/04/06 06:35:09;;;;;;;8.10;6.27;;;;;;;9.39;73.81;99880.97;1500887;86;21388;-86
2022/04/06 06:37:38;;;;;;;10.23;6.93;;;;;;;9.41;73.32;99876.87;1503694;86;21484;-85
2022/04/06 06:40:06;;;;;;;10.07;7.10;;;;;;;9.51;73.42;99878.08;1502105;86;22386;-83
2022/04/06 06:42:33;;;;;;;7.43;6.33;;;;;;;9.59;73.51;99884.25;1498351;86;21411;-85
2022/04/06 06:45:00;;;;;;;10.23;6.83;;;;;;;9.71;73.19;99905.47;1508573;86;22268;-85
2022/04/06 06:47:27;;;;;;;12.73;7.20;;;;;;;9.75;72.50;99887.48;1498638;86;21396;-84
2022/04/06 06:49:54;;;;;;;7.43;6.47;;;;;;;9.86;72.91;99888.55;1500900;86;22357;-84
2022/04/06 06:52:21;;;;;;;7.50;6.40;;;;;;;9.94;72.12;99888.59;1500619;86;21366;-85
2022/04/06 06:54:47;;;;;;;8.07;6.70;;;;;;;10.06;71.84;99885.19;1495391;86;22475;-87
2022/04/06 06:57:14;;;;;;;7.50;6.53;;;;;;;10.12;71.22;99889.02;1494729;86;21278;-83
2022/04/06 06:59:42;;;;;;;7.60;5.80;;;;;;;10.19;71.19;99891.39;1480884;86;21591;-82
2022/04/06 07:02:09;;;;;;;8.80;7.23;;;;;;;10.28;70.86;99886.50;1510044;86;21484;-81
2022/04/06 07:04:37;;;;;;;6.60;5.97;;;;;;;10.39;70.86;99891.50;1502808;86;22269;-83
2022/04/06 07:07:04;;;;;;;9.50;7.93;;;;;;;10.52;70.41;99890.22;1495985;86;21403;-83
2022/04/06 07:09:31;;;;;;;7.40;6.20;;;;;;;10.55;69.46;99899.16;1507350;86;22415;-82
2022/04/06 07:11:58;;;;;;;7.67;6.53;;;;;;;10.59;69.23;99897.86;1498959;86;21374;-82
2022/04/06 07:14:26;;;;;;;9.57;8.30;;;;;;;10.68;69.22;99906.66;1500073;86;22305;-85
2022/04/06 07:16:54;;;;;;;7.10;6.27;;;;;;;10.74;68.86;99908.66;1498983;86;21892;-81
2022/04/06 07:19:21;;;;;;;7.43;6.50;;;;;;;10.79;68.99;99913.80;1481482;86;21426;-83
2022/04/06 07:21:48;;;;;;;8.90;6.70;;;;;;;10.87;68.75;99910.83;1505321;86;23216;-82
2022/04/06 07:24:15;;;;;;;7.87;6.33;;;;;;;10.90;68.30;99917.12;1484134;86;21407;-81
2022/04/06 07:26:42;;;;;;;11.80;7.03;;;;;;;10.94;68.43;99926.41;1494595;87;21301;-82
2022/04/06 07:29:11;;;;;;;9.60;6.30;;;;;;;10.94;68.32;99922.44;1481459;87;21488;-82
2022/04/06 07:31:39;;;;;;;8.97;6.80;;;;;;;10.99;68.55;99928.05;1501862;86;21363;-82
2022/04/06 07:34:06;;;;;;;6.40;5.70;;;;;;;11.05;68.60;99924.28;1499117;86;22235;-83
2022/04/06 07:36:33;;;;;;;11.27;6.27;;;;;;;11.01;67.63;99927.41;1483681;87;21511;-82
2022/04/06 07:39:03;;;;;;;6.67;5.97;;;;;;;11.06;68.24;99917.16;1490388;87;21475;-82
2022/04/06 07:41:32;;;;;;;7.97;5.90;;;;;;;11.15;68.45;99925.45;1493834;87;21456;-84
2022/04/06 07:44:00;;;;;;;8.33;6.23;;;;;;;11.21;67.90;99918.16;1499964;86;21418;-83
2022/04/06 07:46:28;;;;;;;6.77;5.63;;;;;;;11.26;67.81;99919.83;1481887;87;21334;-82
2022/04/06 07:48:55;;;;;;;7.97;7.00;;;;;;;11.41;67.52;99921.83;1476580;88;21334;-82
2022/04/06 07:51:21;;;;;;;7.60;6.80;;;;;;;11.64;67.38;99921.48;1480937;87;21319;-83
2022/04/06 07:53:48;;;;;;;6.67;5.87;;;;;;;11.87;67.09;99920.84;1459238;88;21341;-82
2022/04/06 07:56:15;;;;;;;10.87;6.93;;;;;;;11.91;66.22;99922.14;1480617;88;22544;-85
2022/04/06 07:58:42;;;;;;;8.90;6.17;;;;;;;11.95;65.69;99919.50;1481385;88;21378;-86
2022/04/06 08:01:10;;;;;;;9.13;6.63;;;;;;;12.08;66.11;99923.76;1477261;88;21451;-86
2022/04/06 08:03:37;;;;;;;12.13;6.33;;;;;;;12.33;65.94;99918.39;1477821;87;21271;-89
2022/04/06 08:06:05;;;;;;;8.73;7.40;;;;;;;12.60;64.77;99913.13;1497882;87;21345;-87
2022/04/06 08:08:33;;;;;;;6.90;6.00;;;;;;;12.81;63.78;99914.70;1501096;86;21330;-89
2022/04/06 08:11:00;;;;;;;16.33;6.77;;;;;;;12.95;63.01;99913.13;1497263;87;21419;-87
2022/04/06 08:13:27;;;;;;;6.73;6.10;;;;;;;13.13;62.51;99927.96;1494300;87;21403;-87
2022/04/06 08:15:54;;;;;;;6.13;5.53;;;;;;;13.39;62.61;99913.84;1485962;87;21447;-88
2022/04/06 08:18:22;;;;;;;6.60;4.73;;;;;;;13.72;61.48;99924.19;1486085;87;21373;-87
2022/04/06 08:20:55;;;;;;;10.50;5.27;;;;;;;13.82;60.24;99918.13;1487470;87;21529;-87
2022/04/06 08:23:25;;;;;;;7.37;5.40;;;;;;;13.96;59.55;99921.81;1488662;87;21403;-92
2022/04/06 08:25:52;;;;;;;5.90;4.97;;;;;;;13.94;59.09;99922.49;1492420;87;21336;-87
2022/04/06 08:28:19;;;;;;;7.53;4.80;;;;;;;13.95;59.55;99915.67;1485650;87;21403;-88
2022/04/06 08:30:47;;;;;;;6.07;4.57;;;;;;;14.02;59.20;99922.92;1484498;87;21365;-89
2022/04/06 08:33:15;;;;;;;5.93;4.37;;;;;;;14.09;58.35;99936.62;1483110;87;21336;-85
2022/04/06 08:35:43;;;;;;;5.17;4.60;;;;;;;14.02;58.92;99925.59;1482303;87;21469;-85
2022/04/06 08:38:15;;;;;;;5.47;4.70;;;;;;;14.05;59.26;99922.56;1484387;87;21510;-85
2022/04/06 08:40:44;;;;;;;5.23;4.70;;;;;;;14.19;59.05;99919.08;1486985;87;21342;-85
2022/04/06 08:43:11;;;;;;;5.40;4.77;;;;;;;14.31;59.18;99917.60;1485075;87;21491;-85
2022/04/06 08:45:39;;;;;;;4.30;3.50;;;;;;;14.42;58.90;99926.45;1480550;87;21875;-89
2022/04/06 08:48:09;;;;;;;14.30;4.37;;;;;;;14.42;57.69;99914.48;1486937;87;22298;-85
2022/04/06 08:50:38;;;;;;;5.27;4.30;;;;;;;14.43;58.69;99913.97;1489005;87;21322;-85
2022/04/06 08:53:07;;;;;;;9.03;3.63;;;;;;;14.51;59.33;99911.72;1478937;87;22393;-85
2022/04/06 08:55:35;;;;;;;3.53;2.93;;;;;;;14.74;58.41;99912.44;1467737;87;21433;-85
2022/04/06 08:58:03;;;;;;;4.07;3.43;;;;;;;14.75;56.94;99906.09;1454656;89;21330;-86
2022/04/06 09:00:32;;;;;;;4.17;3.47;;;;;;;14.72;56.95;99905.13;1459868;89;21471;-84
2022/04/06 09:02:59;;;;;;;3.20;2.90;;;;;;;14.92;56.92;99898.70;1456157;89;21308;-84
2022/04/06 09:05:28;;;;;;;3.73;2.70;;;;;;;15.09;55.46;99891.29;1465024;89;21375;-86
2022/04/06 09:07:58;;;;;;;8.17;4.10;;;;;;;15.24;55.34;99896.55;1456515;89;21419;-84
2022/04/06 09:10:35;;;;;;;3.33;2.43;;;;;;;15.35;55.20;99910.20;1443016;89;21360;-87
2022/04/06 09:13:20;;;;;;;2.70;2.40;;;;;;;15.38;53.85;99899.66;1461093;89;21507;-89
2022/04/06 09:15:45;;;;;;;4.00;3.00;;;;;;;15.56;54.43;99896.52;1467894;89;21633;-90
2022/04/06 09:18:13;;;;;;;3.57;2.50;;;;;;;15.64;53.95;99903.05;1456580;89;21476;-86
2022/04/06 09:20:40;;;;;;;6.83;2.73;;;;;;;15.67;53.41;99901.84;1460483;89;21301;-85
2022/04/06 09:23:07;;;;;;;2.90;2.43;;;;;;;15.71;53.74;99898.64;1456532;89;21440;-84
2022/04/06 09:25:37;;;;;;;6.20;2.70;;;;;;;15.79;52.94;99895.83;1460112;89;21353;-85
2022/04/06 09:28:11;;;;;;;3.20;2.10;;;;;;;15.86;52.66;99901.72;1458873;89;21329;-89
2022/04/06 09:30:41;;;;;;;2.53;2.20;;;;;;;15.89;52.65;99897.33;1453915;89;21368;-88
2022/04/06 09:33:21;;;;;;;4.85;2.50;;;;;;;15.89;51.49;99893.33;1464255;89;22248;-85
2022/04/06 09:35:49;;;;;;;2.65;2.15;;;;;;;15.83;52.10;99899.45;1463672;89;21308;-86
2022/04/06 09:38:22;;;;;;;9.90;2.17;;;;;;;15.97;52.01;99906.52;1441642;89;21382;-85
2022/04/06 09:41:02;;;;;;;5.33;2.13;;;;;;;15.96;51.64;99888.84;1459573;89;21567;-87
2022/04/06 09:43:31;;;;;;;;;;;;;;;16.05;51.32;99903.67;1460521;89;21330;-86
2022/04/06 09:49:18;;;;;;;2.17;1.80;;;;;;;16.20;50.56;99899.58;1459516;89;21426;-87
2022/04/06 09:51:54;;;;;;;3.43;1.90;;;;;;;16.01;50.78;99874.41;1466417;89;21338;-84
2022/04/06 09:54:19;;;;;;;1.87;1.60;;;;;;;16.08;51.70;99900.61;1452766;89;21485;-86
2022/04/06 09:56:47;;;;;;;2.80;1.83;;;;;;;16.05;50.96;99892.18;1460798;89;22307;-85
2022/04/06 09:59:15;;;;;;;3.70;2.03;;;;;;;15.97;51.00;99889.17;1456960;89;21287;-86
2022/04/06 10:01:56;;;;;;;5.10;2.10;;;;;;;15.85;51.34;99880.04;1459580;89;21353;-88
2022/04/06 10:04:26;;;;;;;2.65;1.77;;;;;;;15.74;52.05;99883.58;1460979;89;21470;-90
2022/04/06 10:06:57;;;;;;;2.60;1.63;;;;;;;15.66;52.40;99869.02;1461475;89;21383;-85
2022/04/06 10:09:26;;;;;;;3.90;1.55;;;;;;;15.63;52.29;99877.92;1456367;89;21485;-85
2022/04/06 10:11:58;;;;;;;2.37;2.08;;;;;;;15.61;52.74;99878.10;1458564;89;21359;-85
2022/04/06 10:14:25;;;;;;;3.87;1.50;;;;;;;15.70;52.79;99877.48;1460602;88;22320;-86
2022/04/06 10:16:54;;;;;;;2.80;1.57;;;;;;;15.71;52.67;99879.97;1473162;88;21463;-86
2022/04/06 10:19:24;;;;;;;3.83;1.33;;;;;;;15.61;52.22;99876.77;1451434;88;21375;-85
2022/04/06 10:22:06;;;;;;;2.15;1.45;;;;;;;15.54;52.47;99872.73;1473969;88;21449;-86
2022/04/06 10:25:05;;;;;;;4.30;2.00;;;;;;;15.45;52.48;99874.38;1466880;88;21413;-84
2022/04/06 10:27:42;;;;;;;1.70;1.20;;;;;;;15.46;52.41;99868.05;1468617;88;21544;-86
2022/04/06 10:30:17;;;;;;;1.60;1.50;;;;;;;15.56;52.04;99868.52;1467950;88;21441;-84
2022/04/06 10:32:48;;;;;;;4.00;1.50;;;;;;;15.78;52.02;99856.81;1472455;88;21301;-88
2022/04/06 10:35:22;;;;;;;1.47;1.20;;;;;;;16.08;51.61;99867.24;1463424;88;21412;-84
2022/04/06 10:38:00;;;;;;;3.60;1.07;;;;;;;16.37;50.82;99866.67;1473103;88;21316;-84
2022/04/06 10:40:33;;;;;;;2.47;1.40;;;;;;;16.45;50.18;99851.81;1461324;88;21361;-85
2022/04/06 10:43:00;;;;;;;3.90;1.30;;;;;;;16.72;49.60;99854.59;1436610;88;21375;-85
2022/04/06 10:45:32;;;;;;;3.50;1.20;;;;;;;17.02;49.92;99849.22;1449506;90;21375;-86
2022/04/06 10:48:18;;;;;;;2.73;1.67;;;;;;;16.96;48.15;99851.38;1446741;90;23251;-85
2022/04/06 10:50:48;;;;;;;3.00;1.10;;;;;;;17.00;48.65;99851.27;1444919;90;21390;-84
2022/04/06 10:53:24;;;;;;;1.80;1.60;;;;;;;17.29;48.13;99849.23;1452955;90;21382;-85
2022/04/06 10:56:06;;;;;;;1.83;1.63;;;;;;;17.59;46.65;99857.16;1450244;90;21441;-84
2022/04/06 10:58:58;;;;;;;9.37;1.43;;;;;;;17.58;46.21;99853.36;1454737;90;21383;-86
2022/04/06 11:01:33;;;;;;;2.93;1.10;;;;;;;17.55;44.57;99847.91;1439799;90;21375;-86
2022/04/06 11:04:05;;;;;;;3.27;1.83;;;;;;;17.47;45.78;99839.27;1452601;90;22409;-86
2022/04/06 11:06:49;;;;;;;3.70;1.70;;;;;;;17.49;46.33;99842.05;1446238;90;21419;-87
2022/04/06 11:12:26;;;;;;;5.57;1.57;;;;;;;17.08;45.64;99851.59;1440025;90;22387;-82
2022/04/06 11:15:05;;;;;;;2.27;1.83;;;;;;;17.07;46.01;99834.73;1444842;90;22358;-80
2022/04/06 11:17:41;;;;;;;2.10;1.60;;;;;;;17.03;45.69;99844.20;1450953;90;21893;-79
2022/04/06 11:20:12;;;;;;;2.37;1.40;;;;;;;17.02;45.50;99837.70;1441982;90;21526;-78
2022/04/06 11:22:43;;;;;;;2.33;1.37;;;;;;;17.21;46.27;99830.74;1444959;90;21354;-79
2022/04/06 11:25:13;;;;;;;2.77;1.00;;;;;;;17.29;45.70;99834.03;1445076;90;21495;-79
2022/04/06 11:27:43;;;;;;;4.40;1.60;;;;;;;17.08;45.11;99837.70;1438163;90;21413;-79
2022/04/06 11:30:17;;;;;;;4.08;1.62;;;;;;;17.06;46.08;99836.26;1435682;90;21579;-79
2022/04/06 11:33:00;;;;;;;1.40;1.23;;;;;;;17.06;46.22;99834.92;1435136;90;21406;-80
2022/04/06 11:35:36;;;;;;;1.70;1.53;;;;;;;17.02;46.07;99837.19;1441255;90;21421;-79
2022/04/06 11:38:05;;;;;;;3.10;1.80;;;;;;;16.91;46.04;99840.45;1444911;90;22360;-77
2022/04/06 11:40:33;;;;;;;5.73;1.60;;;;;;;16.78;46.81;99828.42;1447219;90;21414;-77
2022/04/06 11:43:05;;;;;;;4.53;1.50;;;;;;;16.74;47.09;99837.82;1439635;90;21414;-78
2022/04/06 11:45:40;;;;;;;3.03;1.60;;;;;;;16.70;47.16;99836.89;1454097;90;21421;-78
2022/04/06 11:48:11;;;;;;;4.80;1.97;;;;;;;16.70;47.03;99830.73;1440520;90;21444;-77
2022/04/06 11:50:41;;;;;;;5.03;2.43;;;;;;;16.63;47.13;99825.37;1432521;90;21444;-78
2022/04/06 11:53:18;;;;;;;2.55;2.30;;;;;;;16.67;47.62;99818.59;1438931;90;21391;-78
2022/04/06 11:55:53;;;;;;;2.93;2.13;;;;;;;16.73;47.15;99805.46;1422496;90;21472;-78